createdAt,value
2023-02-11T00:00:25.294Z,1018.9
2023-02-11T00:02:25.315Z,1019
2023-02-11T00:03:20.462Z,1019
2023-02-11T00:04:24.436Z,1019
2023-02-11T00:06:24.393Z,1019.1
2023-02-11T00:08:24.421Z,1019.2
2023-02-11T00:10:24.477Z,1019.2
2023-02-11T00:12:24.428Z,1019.4
2023-02-11T00:14:24.534Z,1019.4
2023-02-11T00:16:24.504Z,1019.3
2023-02-11T00:18:24.391Z,1019.3
2023-02-11T00:20:24.422Z,1019.3
2023-02-11T00:22:24.409Z,1019.4
2023-02-11T00:24:24.380Z,1019.5
2023-02-11T00:26:24.413Z,1019.5
2023-02-11T00:28:25.633Z,1019.5
2023-02-11T00:30:24.503Z,1019.5
2023-02-11T00:32:24.385Z,1019.5
2023-02-11T00:34:24.418Z,1019.4
2023-02-11T00:36:00.548Z,1019.4
2023-02-11T00:37:19.694Z,1019.4
2023-02-11T00:39:19.699Z,1019.4
2023-02-11T00:41:19.859Z,1019.5
2023-02-11T00:43:19.687Z,1019.6
2023-02-11T00:45:19.690Z,1019.6
2023-02-11T00:47:19.829Z,1019.6
2023-02-11T00:49:19.710Z,1019.6
2023-02-11T00:51:19.684Z,1019.7
2023-02-11T00:53:19.689Z,1019.7
2023-02-11T00:55:19.705Z,1019.8
2023-02-11T00:57:19.679Z,1019.8
2023-02-11T00:59:19.764Z,1019.9
2023-02-11T01:01:19.705Z,1020
2023-02-11T01:03:19.664Z,1020
2023-02-11T01:05:19.787Z,1020
2023-02-11T01:07:19.682Z,1020
2023-02-11T01:09:20.713Z,1020.1
2023-02-11T01:11:21.021Z,1020
2023-02-11T01:13:19.642Z,1020.1
2023-02-11T01:15:19.732Z,1020.2
2023-02-11T01:17:19.652Z,1020.2
2023-02-11T01:19:19.657Z,1020.3
2023-02-11T01:21:19.651Z,1020.4
2023-02-11T01:23:19.636Z,1020.4
2023-02-11T01:25:19.700Z,1020.4
2023-02-11T01:27:19.668Z,1020.5
2023-02-11T01:29:19.661Z,1020.5
2023-02-11T01:31:19.718Z,1020.5
2023-02-11T01:33:19.786Z,1020.6
2023-02-11T01:35:19.650Z,1020.6
2023-02-11T01:37:19.700Z,1020.6
2023-02-11T01:39:19.639Z,1020.5
2023-02-11T01:41:19.652Z,1020.5
2023-02-11T01:43:19.635Z,1020.6
2023-02-11T01:45:19.603Z,1020.7
2023-02-11T01:47:19.644Z,1020.7
2023-02-11T01:49:19.725Z,1020.7
2023-02-11T01:51:19.753Z,1020.7
2023-02-11T01:53:19.617Z,1020.8
2023-02-11T01:55:19.638Z,1020.7
2023-02-11T01:57:19.601Z,1020.7
2023-02-11T01:59:19.594Z,1020.7
2023-02-11T02:01:19.645Z,1020.8
2023-02-11T02:03:19.675Z,1020.8
2023-02-11T02:05:19.697Z,1020.9
2023-02-11T02:07:19.722Z,1020.9
2023-02-11T02:09:19.608Z,1020.9
2023-02-11T02:11:19.585Z,1020.9
2023-02-11T02:13:19.578Z,1021.1
2023-02-11T02:15:19.558Z,1021.2
2023-02-11T02:17:19.651Z,1021.2
2023-02-11T02:19:19.642Z,1021.2
2023-02-11T02:21:20.937Z,1021.2
2023-02-11T02:23:19.583Z,1021.2
2023-02-11T02:25:19.597Z,1021.2
2023-02-11T02:27:19.552Z,1021.2
2023-02-11T02:29:19.605Z,1021.1
2023-02-11T02:31:20.103Z,1021
2023-02-11T02:33:22.732Z,1021
2023-02-11T02:35:19.602Z,1020.9
2023-02-11T02:37:19.673Z,1020.9
2023-02-11T02:39:19.578Z,1020.9
2023-02-11T02:41:19.574Z,1020.9
2023-02-11T02:43:19.558Z,1021
2023-02-11T02:45:19.566Z,1021.1
2023-02-11T02:47:19.554Z,1021.3
2023-02-11T02:49:11.331Z,1021.3
2023-02-11T02:50:27.875Z,1021.3
2023-02-11T02:52:27.926Z,1021.3
2023-02-11T02:54:27.830Z,1021.4
2023-02-11T02:56:27.773Z,1021.4
2023-02-11T02:58:27.924Z,1021.5
2023-02-11T03:00:27.936Z,1021.6
2023-02-11T03:02:29.150Z,1021.5
2023-02-11T03:04:27.822Z,1021.6
2023-02-11T03:06:27.752Z,1021.6
2023-02-11T03:08:27.808Z,1021.5
2023-02-11T03:10:27.866Z,1021.6
2023-02-11T03:12:27.880Z,1021.6
2023-02-11T03:14:27.772Z,1021.7
2023-02-11T03:16:27.866Z,1021.7
2023-02-11T03:18:27.819Z,1021.7
2023-02-11T03:20:27.890Z,1021.6
2023-02-11T03:22:27.837Z,1021.6
2023-02-11T03:24:27.856Z,1021.6
2023-02-11T03:26:09.448Z,1021.6
2023-02-11T03:27:05.382Z,1021.7
2023-02-11T03:29:05.433Z,1021.6
2023-02-11T03:31:05.444Z,1021.6
2023-02-11T03:33:05.398Z,1021.7
2023-02-11T03:35:05.444Z,1021.8
2023-02-11T03:37:05.378Z,1021.8
2023-02-11T03:39:05.443Z,1021.8
2023-02-11T03:41:05.413Z,1021.8
2023-02-11T03:43:05.381Z,1021.7
2023-02-11T03:45:05.355Z,1021.7
2023-02-11T03:47:05.357Z,1021.7
2023-02-11T03:49:05.329Z,1021.7
2023-02-11T03:51:05.427Z,1021.6
2023-02-11T03:53:05.338Z,1021.6
2023-02-11T03:55:05.342Z,1021.7
2023-02-11T03:57:05.342Z,1021.7
2023-02-11T03:59:05.359Z,1021.7
2023-02-11T04:01:05.422Z,1021.9
2023-02-11T04:03:05.403Z,1022
2023-02-11T04:05:05.369Z,1022.1
2023-02-11T04:07:05.336Z,1022.1
2023-02-11T04:09:05.372Z,1022
2023-02-11T04:11:05.320Z,1021.9
2023-02-11T04:13:05.342Z,1021.9
2023-02-11T04:15:05.314Z,1022
2023-02-11T04:17:05.341Z,1021.9
2023-02-11T04:19:05.381Z,1021.9
2023-02-11T04:21:05.336Z,1021.9
2023-02-11T04:23:05.487Z,1022
2023-02-11T04:25:05.363Z,1022
2023-02-11T04:27:05.311Z,1021.9
2023-02-11T04:29:05.359Z,1022.1
2023-02-11T04:31:05.559Z,1022.2
2023-02-11T04:33:05.287Z,1022.2
2023-02-11T04:35:05.320Z,1022.3
2023-02-11T04:37:05.332Z,1022.4
2023-02-11T04:39:05.319Z,1022.5
2023-02-11T04:41:05.339Z,1022.5
2023-02-11T04:43:05.289Z,1022.5
2023-02-11T04:45:05.289Z,1022.5
2023-02-11T04:47:05.291Z,1022.5
2023-02-11T04:49:05.318Z,1022.4
2023-02-11T04:51:05.320Z,1022.5
2023-02-11T04:53:05.300Z,1022.5
2023-02-11T04:55:05.283Z,1022.5
2023-02-11T04:57:05.304Z,1022.5
2023-02-11T04:59:05.296Z,1022.4
2023-02-11T05:01:05.319Z,1022.3
2023-02-11T05:03:05.280Z,1022.4
2023-02-11T05:05:05.273Z,1022.5
2023-02-11T05:07:05.276Z,1022.6
2023-02-11T05:09:05.273Z,1022.7
2023-02-11T05:11:05.249Z,1022.6
2023-02-11T05:13:05.282Z,1022.7
2023-02-11T05:15:05.274Z,1022.7
2023-02-11T05:17:05.259Z,1022.8
2023-02-11T05:19:05.256Z,1022.7
2023-02-11T05:21:05.235Z,1022.7
2023-02-11T05:23:05.251Z,1022.9
2023-02-11T05:25:05.259Z,1023.1
2023-02-11T05:27:05.337Z,1023.2
2023-02-11T05:29:05.566Z,1023.1
2023-02-11T05:31:05.343Z,1023.2
2023-02-11T05:33:05.242Z,1023.2
2023-02-11T05:35:05.234Z,1023.2
2023-02-11T05:37:05.297Z,1023.2
2023-02-11T05:39:05.279Z,1023.2
2023-02-11T05:41:05.253Z,1023.2
2023-02-11T05:43:05.232Z,1023.2
2023-02-11T05:45:05.209Z,1023.1
2023-02-11T05:47:05.225Z,1023.2
2023-02-11T05:49:05.242Z,1023.1
2023-02-11T05:51:05.243Z,1023.1
2023-02-11T05:53:05.210Z,1023.1
2023-02-11T05:55:05.213Z,1023.1
2023-02-11T05:57:05.209Z,1023.2
2023-02-11T05:59:05.279Z,1023.2
2023-02-11T06:01:05.197Z,1023.2
2023-02-11T06:03:05.203Z,1023.3
2023-02-11T06:05:05.208Z,1023.4
2023-02-11T06:07:05.180Z,1023.5
2023-02-11T06:09:05.171Z,1023.5
2023-02-11T06:11:05.280Z,1023.5
2023-02-11T06:13:05.202Z,1023.6
2023-02-11T06:15:05.156Z,1023.6
2023-02-11T06:17:05.197Z,1023.6
2023-02-11T06:19:05.279Z,1023.5
2023-02-11T06:21:05.181Z,1023.5
2023-02-11T06:23:05.196Z,1023.3
2023-02-11T06:25:05.155Z,1023.3
2023-02-11T06:27:05.227Z,1023.2
2023-02-11T06:29:05.204Z,1023.2
2023-02-11T06:31:05.201Z,1023.3
2023-02-11T06:33:05.167Z,1023.3
2023-02-11T06:35:05.209Z,1023.1
2023-02-11T06:37:05.210Z,1023
2023-02-11T06:39:05.171Z,1023.3
2023-02-11T06:41:05.163Z,1023.3
2023-02-11T06:43:05.152Z,1023.3
2023-02-11T06:45:05.192Z,1023.2
2023-02-11T06:47:05.139Z,1023.1
2023-02-11T06:49:05.131Z,1023.2
2023-02-11T06:51:05.145Z,1023.2
2023-02-11T06:53:05.147Z,1023.3
2023-02-11T06:55:05.111Z,1023.2
2023-02-11T06:57:05.146Z,1023.1
2023-02-11T06:59:05.140Z,1023.1
2023-02-11T07:01:05.130Z,1023
2023-02-11T07:03:05.217Z,1023
2023-02-11T07:05:05.123Z,1023
2023-02-11T07:07:05.155Z,1023
2023-02-11T07:09:05.126Z,1023.1
2023-02-11T07:11:05.125Z,1023.1
2023-02-11T07:13:05.130Z,1023
2023-02-11T07:15:05.107Z,1022.9
2023-02-11T07:17:05.118Z,1023
2023-02-11T07:19:05.111Z,1023
2023-02-11T07:21:05.108Z,1023
2023-02-11T07:23:05.095Z,1023
2023-02-11T07:25:05.085Z,1023
2023-02-11T07:27:05.085Z,1022.9
2023-02-11T07:29:05.105Z,1022.9
2023-02-11T07:31:05.246Z,1022.9
2023-02-11T07:33:05.093Z,1022.8
2023-02-11T07:35:05.157Z,1022.9
2023-02-11T07:37:05.079Z,1023
2023-02-11T07:39:05.102Z,1023.1
2023-02-11T07:41:05.080Z,1023
2023-02-11T07:43:05.080Z,1023.1
2023-02-11T07:45:05.158Z,1023.2
2023-02-11T07:47:05.125Z,1023.2
2023-02-11T07:49:05.074Z,1023.1
2023-02-11T07:51:05.118Z,1023
2023-02-11T07:53:05.083Z,1023.1
2023-02-11T07:55:05.143Z,1023.1
2023-02-11T07:57:05.059Z,1023.2
2023-02-11T07:59:05.086Z,1023.2
2023-02-11T08:01:05.096Z,1023.4
2023-02-11T08:03:05.045Z,1023.5
2023-02-11T08:05:05.062Z,1023.4
2023-02-11T08:07:05.061Z,1023.4
2023-02-11T08:09:05.051Z,1023.4
2023-02-11T08:11:05.046Z,1023.4
2023-02-11T08:13:05.047Z,1023.6
2023-02-11T08:15:05.079Z,1023.6
2023-02-11T08:17:05.037Z,1023.6
2023-02-11T08:19:05.052Z,1023.6
2023-02-11T08:21:05.056Z,1023.5
2023-02-11T08:23:05.025Z,1023.4
2023-02-11T08:25:05.057Z,1023.5
2023-02-11T08:27:05.043Z,1023.6
2023-02-11T08:29:05.020Z,1023.8
2023-02-11T08:31:05.054Z,1023.9
2023-02-11T08:33:05.020Z,1024
2023-02-11T08:35:05.051Z,1023.9
2023-02-11T08:37:05.029Z,1023.8
2023-02-11T08:39:17.867Z,1023.8
2023-02-11T08:41:05.025Z,1023.9
2023-02-11T08:43:07.664Z,1023.9
2023-02-11T08:45:04.987Z,1023.9
2023-02-11T08:47:04.970Z,1023.9
2023-02-11T08:49:04.992Z,1023.8
2023-02-11T08:51:04.990Z,1023.8
2023-02-11T08:53:04.977Z,1023.7
2023-02-11T08:55:04.964Z,1023.6
2023-02-11T08:57:04.963Z,1023.5
2023-02-11T08:59:04.955Z,1023.5
2023-02-11T09:01:04.997Z,1023.4
2023-02-11T09:03:05.010Z,1023.4
2023-02-11T09:05:04.968Z,1023.4
2023-02-11T09:07:04.982Z,1023.6
2023-02-11T09:09:04.984Z,1023.6
2023-02-11T09:11:04.973Z,1023.7
2023-02-11T09:13:04.984Z,1023.6
2023-02-11T09:15:04.983Z,1023.6
2023-02-11T09:17:05.129Z,1023.8
2023-02-11T09:19:04.970Z,1024
2023-02-11T09:21:04.962Z,1024.1
2023-02-11T09:23:04.949Z,1024.2
2023-02-11T09:25:05.010Z,1024.2
2023-02-11T09:27:04.976Z,1024.4
2023-02-11T09:29:05.002Z,1024.5
2023-02-11T09:31:05.037Z,1024.4
2023-02-11T09:33:04.962Z,1024.6
2023-02-11T09:35:04.986Z,1024.6
2023-02-11T09:37:04.940Z,1024.6
2023-02-11T09:39:04.919Z,1024.7
2023-02-11T09:41:05.053Z,1024.7
2023-02-11T09:43:04.938Z,1024.6
2023-02-11T09:45:04.915Z,1024.5
2023-02-11T09:47:04.977Z,1024.6
2023-02-11T09:49:04.956Z,1024.7
2023-02-11T09:51:05.013Z,1024.6
2023-02-11T09:53:04.909Z,1024.7
2023-02-11T09:55:04.928Z,1024.6
2023-02-11T09:57:04.919Z,1024.6
2023-02-11T09:59:04.895Z,1024.7
2023-02-11T10:01:04.974Z,1024.7
2023-02-11T10:03:04.925Z,1024.7
2023-02-11T10:05:04.913Z,1024.8
2023-02-11T10:07:04.910Z,1024.8
2023-02-11T10:09:04.920Z,1024.8
2023-02-11T10:11:04.906Z,1024.9
2023-02-11T10:13:04.896Z,1025.1
2023-02-11T10:15:04.897Z,1025.1
2023-02-11T10:17:04.897Z,1025
2023-02-11T10:19:04.886Z,1025.3
2023-02-11T10:21:04.882Z,1025.2
2023-02-11T10:23:04.871Z,1025.2
2023-02-11T10:25:04.884Z,1025.1
2023-02-11T10:27:04.895Z,1025.3
2023-02-11T10:29:04.906Z,1025.1
2023-02-11T10:31:04.935Z,1025.2
2023-02-11T10:33:04.926Z,1025.1
2023-02-11T10:35:04.877Z,1025.2
2023-02-11T10:37:04.896Z,1025.2
2023-02-11T10:39:04.905Z,1025.4
2023-02-11T10:41:04.860Z,1025.4
2023-02-11T10:43:04.915Z,1025.6
2023-02-11T10:45:04.936Z,1025.7
2023-02-11T10:47:04.842Z,1025.9
2023-02-11T10:49:04.857Z,1025.9
2023-02-11T10:51:04.850Z,1025.8
2023-02-11T10:53:04.828Z,1025.8
2023-02-11T10:55:07.398Z,1025.8
2023-02-11T10:57:04.874Z,1025.6
2023-02-11T10:59:04.856Z,1025.7
2023-02-11T11:01:10.270Z,1025.6
2023-02-11T11:03:04.872Z,1025.6
2023-02-11T11:05:04.949Z,1025.8
2023-02-11T11:07:04.862Z,1025.9
2023-02-11T11:09:04.841Z,1025.7
2023-02-11T11:11:04.869Z,1025.7
2023-02-11T11:13:04.855Z,1025.7
2023-02-11T11:15:04.831Z,1025.7
2023-02-11T11:17:04.830Z,1025.7
2023-02-11T11:19:04.850Z,1025.8
2023-02-11T11:21:04.842Z,1025.9
2023-02-11T11:23:04.865Z,1025.9
2023-02-11T11:25:04.837Z,1026
2023-02-11T11:27:04.797Z,1026
2023-02-11T11:29:04.863Z,1026
2023-02-11T11:31:05.050Z,1026
2023-02-11T11:33:04.838Z,1026
2023-02-11T11:35:04.842Z,1026
2023-02-11T11:37:04.901Z,1026
2023-02-11T11:39:04.771Z,1026.1
2023-02-11T11:41:05.126Z,1026.1
2023-02-11T11:43:04.977Z,1026.1
2023-02-11T11:45:05.045Z,1026.2
2023-02-11T11:47:04.825Z,1026.1
2023-02-11T11:49:04.852Z,1026.2
2023-02-11T11:51:04.774Z,1026.2
2023-02-11T11:53:04.803Z,1026.1
2023-02-11T11:55:04.925Z,1026.2
2023-02-11T11:57:04.775Z,1026.3
2023-02-11T11:59:04.917Z,1026.2
2023-02-11T12:01:04.764Z,1026.1
2023-02-11T12:03:04.993Z,1026.1
2023-02-11T12:05:04.951Z,1026.2
2023-02-11T12:07:06.026Z,1026.2
2023-02-11T12:09:04.949Z,1026.4
2023-02-11T12:11:04.740Z,1026.4
2023-02-11T12:13:04.865Z,1026.3
2023-02-11T12:15:04.831Z,1026.5
2023-02-11T12:17:04.937Z,1026.4
2023-02-11T12:19:04.775Z,1026.3
2023-02-11T12:21:04.791Z,1026.3
2023-02-11T12:23:04.795Z,1026.4
2023-02-11T12:25:07.573Z,1026.4
2023-02-11T12:27:04.857Z,1026.5
2023-02-11T12:29:04.751Z,1026.6
2023-02-11T12:31:06.250Z,1026.6
2023-02-11T12:33:04.983Z,1026.5
2023-02-11T12:35:04.951Z,1026.6
2023-02-11T12:37:07.519Z,1026.6
2023-02-11T12:39:04.969Z,1026.7
2023-02-11T12:41:06.134Z,1026.9
2023-02-11T12:43:04.751Z,1026.9
2023-02-11T12:45:04.804Z,1026.9
2023-02-11T12:47:04.762Z,1026.9
2023-02-11T12:49:06.150Z,1027
2023-02-11T12:51:04.789Z,1027
2023-02-11T12:53:04.843Z,1026.9
2023-02-11T12:55:04.741Z,1027
2023-02-11T12:57:04.716Z,1027
2023-02-11T12:59:04.821Z,1027.1
2023-02-11T13:01:04.746Z,1027.1
2023-02-11T13:03:04.856Z,1027.1
2023-02-11T13:05:04.722Z,1027.1
2023-02-11T13:07:04.762Z,1027.1
2023-02-11T13:09:04.850Z,1027.1
2023-02-11T13:11:04.707Z,1027.1
2023-02-11T13:13:07.501Z,1027.1
2023-02-11T13:15:04.851Z,1027.2
2023-02-11T13:17:04.692Z,1027.2
2023-02-11T13:19:04.720Z,1027.1
2023-02-11T13:21:04.704Z,1027.2
2023-02-11T13:23:04.663Z,1027.2
2023-02-11T13:25:04.758Z,1027.2
2023-02-11T13:27:04.735Z,1027.3
2023-02-11T13:29:04.686Z,1027.3
2023-02-11T13:31:04.882Z,1027.4
2023-02-11T13:33:04.737Z,1027.4
2023-02-11T13:35:04.717Z,1027.3
2023-02-11T13:37:04.757Z,1027.4
2023-02-11T13:39:04.889Z,1027.4
2023-02-11T13:41:04.762Z,1027.5
2023-02-11T13:43:04.669Z,1027.5
2023-02-11T13:45:04.693Z,1027.5
2023-02-11T13:47:04.874Z,1027.6
2023-02-11T13:49:04.686Z,1027.8
2023-02-11T13:51:04.709Z,1027.7
2023-02-11T13:53:04.717Z,1027.6
2023-02-11T13:55:04.691Z,1027.6
2023-02-11T13:57:04.741Z,1027.5
2023-02-11T13:59:04.662Z,1027.5
2023-02-11T14:01:07.464Z,1027.5
2023-02-11T14:03:04.678Z,1027.6
2023-02-11T14:05:04.837Z,1027.6
2023-02-11T14:07:04.699Z,1027.6
2023-02-11T14:09:06.055Z,1027.6
2023-02-11T14:11:04.700Z,1027.4
2023-02-11T14:13:04.779Z,1027.5
2023-02-11T14:15:07.700Z,1027.5
2023-02-11T14:17:04.783Z,1027.7
2023-02-11T14:19:05.893Z,1027.7
2023-02-11T14:21:04.739Z,1027.7
2023-02-11T14:23:04.646Z,1027.8
2023-02-11T14:25:04.668Z,1027.8
2023-02-11T14:27:04.628Z,1027.8
2023-02-11T14:29:04.638Z,1027.8
2023-02-11T14:31:04.793Z,1027.9
2023-02-11T14:33:04.718Z,1027.9
2023-02-11T14:35:05.819Z,1027.9
2023-02-11T14:37:04.638Z,1027.9
2023-02-11T14:39:04.651Z,1027.9
2023-02-11T14:41:04.903Z,1027.9
2023-02-11T14:43:04.784Z,1028.1
2023-02-11T14:45:04.701Z,1028
2023-02-11T14:47:04.595Z,1027.9
2023-02-11T14:49:04.763Z,1028
2023-02-11T14:51:04.780Z,1028
2023-02-11T14:53:04.649Z,1028.1
2023-02-11T14:55:04.569Z,1028.1
2023-02-11T14:57:04.677Z,1028.2
2023-02-11T14:59:04.696Z,1028.3
2023-02-11T15:01:04.682Z,1028.3
2023-02-11T15:03:04.604Z,1028.3
2023-02-11T15:05:04.623Z,1028.5
2023-02-11T15:07:04.702Z,1028.4
2023-02-11T15:09:04.637Z,1028.4
2023-02-11T15:11:04.636Z,1028.4
2023-02-11T15:13:05.863Z,1028.5
2023-02-11T15:15:07.017Z,1028.5
2023-02-11T15:17:04.860Z,1028.6
2023-02-11T15:19:04.628Z,1028.6
2023-02-11T15:21:04.543Z,1028.6
2023-02-11T15:23:04.576Z,1028.5
2023-02-11T15:25:04.568Z,1028.6
2023-02-11T15:27:04.586Z,1028.7
2023-02-11T15:29:04.555Z,1028.6
2023-02-11T15:31:04.641Z,1028.6
2023-02-11T15:33:05.773Z,1028.8
2023-02-11T15:35:04.693Z,1028.8
2023-02-11T15:37:04.616Z,1028.8
2023-02-11T15:39:04.534Z,1028.8
2023-02-11T15:41:04.541Z,1028.7
2023-02-11T15:43:04.532Z,1028.9
2023-02-11T15:45:04.526Z,1029
2023-02-11T15:47:04.475Z,1028.9
2023-02-11T15:49:04.506Z,1028.9
2023-02-11T15:51:04.565Z,1028.8
2023-02-11T15:53:04.505Z,1028.7
2023-02-11T15:55:04.547Z,1028.7
2023-02-11T15:57:04.517Z,1028.7
2023-02-11T15:59:04.478Z,1028.7
2023-02-11T16:01:04.515Z,1028.6
2023-02-11T16:03:04.593Z,1028.7
2023-02-11T16:05:04.494Z,1028.7
2023-02-11T16:07:04.550Z,1028.7
2023-02-11T16:09:05.565Z,1028.6
2023-02-11T16:11:04.525Z,1028.7
2023-02-11T16:13:04.480Z,1028.8
2023-02-11T16:15:15.067Z,1028.7
2023-02-11T16:17:05.871Z,1028.7
2023-02-11T16:19:15.135Z,1028.7
2023-02-11T16:21:04.640Z,1028.8
2023-02-11T16:23:04.575Z,1028.6
2023-02-11T16:25:04.473Z,1028.6
2023-02-11T16:27:04.486Z,1028.6
2023-02-11T16:29:05.885Z,1028.6
2023-02-11T16:31:04.639Z,1028.6
2023-02-11T16:33:04.441Z,1028.5
2023-02-11T16:35:05.691Z,1028.6
2023-02-11T16:37:04.452Z,1028.7
2023-02-11T16:39:04.573Z,1028.7
2023-02-11T16:41:04.453Z,1028.7
2023-02-11T16:43:04.445Z,1028.9
2023-02-11T16:45:04.448Z,1028.7
2023-02-11T16:47:04.594Z,1028.7
2023-02-11T16:49:04.478Z,1028.7
2023-02-11T16:51:04.446Z,1028.7
2023-02-11T16:53:04.652Z,1028.7
2023-02-11T16:55:09.242Z,1028.7
2023-02-11T16:56:17.380Z,1028.7
2023-02-11T16:58:17.438Z,1028.8
2023-02-11T17:00:17.420Z,1028.7
2023-02-11T17:02:17.465Z,1028.7
2023-02-11T17:04:17.500Z,1028.6
2023-02-11T17:06:21.599Z,1028.6
2023-02-11T17:08:17.384Z,1028.6
2023-02-11T17:10:17.434Z,1028.6
2023-02-11T17:12:21.909Z,1028.6
2023-02-11T17:14:17.432Z,1028.5
2023-02-11T17:16:17.488Z,1028.6
2023-02-11T17:17:03.902Z,1028.6
2023-02-11T17:18:11.126Z,1028.6
2023-02-11T17:20:11.132Z,1028.5
2023-02-11T17:22:11.166Z,1028.5
2023-02-11T17:24:11.167Z,1028.5
2023-02-11T17:26:11.130Z,1028.5
2023-02-11T17:28:11.197Z,1028.4
2023-02-11T17:30:11.109Z,1028.4
2023-02-11T17:32:11.168Z,1028.4
2023-02-11T17:34:11.138Z,1028.4
2023-02-11T17:36:11.046Z,1028.4
2023-02-11T17:38:11.095Z,1028.5
2023-02-11T17:40:11.121Z,1028.5
2023-02-11T17:42:13.644Z,1028.5
2023-02-11T17:43:17.581Z,1028.5
2023-02-11T17:45:18.569Z,1028.4
2023-02-11T17:47:17.575Z,1028.3
2023-02-11T17:49:17.586Z,1028.3
2023-02-11T17:51:17.591Z,1028.3
2023-02-11T17:53:17.607Z,1028.3
2023-02-11T17:55:17.602Z,1028.4
2023-02-11T17:57:17.578Z,1028.5
2023-02-11T17:59:17.605Z,1028.5
2023-02-11T18:01:17.612Z,1028.4
2023-02-11T18:03:14.458Z,1028.3
2023-02-11T18:04:50.753Z,1028.2
2023-02-11T18:06:50.545Z,1028.2
2023-02-11T18:08:51.625Z,1028.3
2023-02-11T18:10:59.130Z,1028.3
2023-02-11T18:12:50.529Z,1028.2
2023-02-11T18:14:50.490Z,1028.1
2023-02-11T18:16:50.680Z,1028
2023-02-11T18:18:50.512Z,1027.8
2023-02-11T18:20:50.674Z,1027.8
2023-02-11T18:22:50.516Z,1027.8
2023-02-11T18:24:50.486Z,1027.8
2023-02-11T18:26:50.674Z,1027.7
2023-02-11T18:28:50.666Z,1027.7
2023-02-11T18:30:51.758Z,1027.7
2023-02-11T18:32:51.803Z,1027.8
2023-02-11T18:34:50.482Z,1027.8
2023-02-11T18:36:50.526Z,1027.8
2023-02-11T18:37:58.957Z,1027.8
2023-02-11T18:38:53.882Z,1027.8
2023-02-11T18:40:53.911Z,1027.7
2023-02-11T18:42:53.951Z,1027.6
2023-02-11T18:44:53.885Z,1027.7
2023-02-11T18:46:53.850Z,1027.7
2023-02-11T18:48:56.026Z,1027.7
2023-02-11T18:50:53.850Z,1027.7
2023-02-11T18:52:53.920Z,1027.7
2023-02-11T18:54:53.909Z,1027.7
2023-02-11T18:56:55.268Z,1027.8
2023-02-11T18:58:53.959Z,1027.7
2023-02-11T19:00:53.891Z,1027.7
2023-02-11T19:02:53.950Z,1027.7
2023-02-11T19:04:53.900Z,1027.6
2023-02-11T19:06:54.042Z,1027.5
2023-02-11T19:08:53.863Z,1027.5
2023-02-11T19:10:53.868Z,1027.5
2023-02-11T19:12:54.954Z,1027.5
2023-02-11T19:14:53.852Z,1027.5
2023-02-11T19:16:53.979Z,1027.4
2023-02-11T19:18:53.875Z,1027.5
2023-02-11T19:20:53.815Z,1027.5
2023-02-11T19:22:55.196Z,1027.6
2023-02-11T19:23:56.201Z,1027.6
2023-02-11T19:24:54.081Z,1027.5
2023-02-11T19:26:53.839Z,1027.5
2023-02-11T19:28:53.846Z,1027.4
2023-02-11T19:30:54.006Z,1027.3
2023-02-11T19:32:53.747Z,1027.3
2023-02-11T19:34:56.853Z,1027.3
2023-02-11T19:36:53.796Z,1027.2
2023-02-11T19:38:53.751Z,1027.1
2023-02-11T19:40:50.535Z,1027.1
2023-02-11T19:42:53.894Z,1027.2
2023-02-11T19:44:53.844Z,1027.3
2023-02-11T19:46:55.813Z,1027.2
2023-02-11T19:48:53.964Z,1027
2023-02-11T19:50:53.806Z,1027
2023-02-11T19:52:54.892Z,1027
2023-02-11T19:54:53.794Z,1026.9
2023-02-11T19:56:53.883Z,1026.8
2023-02-11T19:58:53.861Z,1026.8
2023-02-11T20:00:55.042Z,1026.8
2023-02-11T20:02:53.837Z,1026.9
2023-02-11T20:04:56.343Z,1026.8
2023-02-11T20:05:45.585Z,1026.9
2023-02-11T20:07:15.413Z,1027
2023-02-11T20:09:15.406Z,1027
2023-02-11T20:11:15.374Z,1027.1
2023-02-11T20:13:15.437Z,1027.2
2023-02-11T20:15:15.403Z,1027.1
2023-02-11T20:17:15.515Z,1027.1
2023-02-11T20:19:15.357Z,1027
2023-02-11T20:21:16.590Z,1027
2023-02-11T20:23:15.402Z,1026.9
2023-02-11T20:24:52.487Z,1026.9
2023-02-11T20:26:06.954Z,1026.8
2023-02-11T20:28:06.855Z,1026.8
2023-02-11T20:30:06.994Z,1026.6
2023-02-11T20:31:21.135Z,1026.6
2023-02-11T20:32:08.384Z,1026.6
2023-02-11T20:34:06.767Z,1026.5
2023-02-11T20:36:06.773Z,1026.6
2023-02-11T20:38:06.778Z,1026.6
2023-02-11T20:40:06.804Z,1026.6
2023-02-11T20:42:06.811Z,1026.7
2023-02-11T20:44:06.804Z,1026.7
2023-02-11T20:46:06.757Z,1026.6
2023-02-11T20:46:42.225Z,1026.6
2023-02-11T20:48:09.781Z,1026.6
2023-02-11T20:50:09.792Z,1026.5
2023-02-11T20:52:09.788Z,1026.5
2023-02-11T20:54:09.777Z,1026.5
2023-02-11T20:56:09.821Z,1026.6
2023-02-11T20:58:09.784Z,1026.6
2023-02-11T21:00:09.788Z,1026.7
2023-02-11T21:02:09.819Z,1026.9
2023-02-11T21:04:09.785Z,1027
2023-02-11T21:06:09.776Z,1027
2023-02-11T21:08:09.789Z,1026.9
2023-02-11T21:10:09.748Z,1026.9
2023-02-11T21:12:09.774Z,1027
2023-02-11T21:14:09.792Z,1026.9
2023-02-11T21:16:09.785Z,1026.8
2023-02-11T21:18:09.732Z,1026.9
2023-02-11T21:20:09.803Z,1027
2023-02-11T21:22:09.739Z,1026.9
2023-02-11T21:24:09.795Z,1026.9
2023-02-11T21:26:09.816Z,1026.9
2023-02-11T21:28:09.802Z,1026.8
2023-02-11T21:30:09.742Z,1026.8
2023-02-11T21:32:09.851Z,1026.7
2023-02-11T21:34:15.743Z,1026.7
2023-02-11T21:36:30.029Z,1026.7
2023-02-11T21:38:09.761Z,1026.7
2023-02-11T21:40:09.732Z,1026.6
2023-02-11T21:42:09.766Z,1026.6
2023-02-11T21:44:09.716Z,1026.6
2023-02-11T21:46:09.763Z,1026.7
2023-02-11T21:48:09.706Z,1026.7
2023-02-11T21:50:09.716Z,1026.6
2023-02-11T21:52:09.763Z,1026.5
2023-02-11T21:54:07.624Z,1026.5
2023-02-11T21:55:03.384Z,1026.5
2023-02-11T21:57:03.382Z,1026.5
2023-02-11T21:59:10.145Z,1026.4
2023-02-11T22:01:03.374Z,1026.4
2023-02-11T22:03:13.657Z,1026.4
2023-02-11T22:05:03.342Z,1026.4
2023-02-11T22:07:03.283Z,1026.4
2023-02-11T22:09:26.187Z,1026.3
2023-02-11T22:11:03.352Z,1026.3
2023-02-11T22:13:03.427Z,1026.4
2023-02-11T22:15:03.302Z,1026.4
2023-02-11T22:17:03.450Z,1026.3
2023-02-11T22:19:03.310Z,1026.2
2023-02-11T22:21:07.391Z,1026.2
2023-02-11T22:23:03.334Z,1026.3
2023-02-11T22:25:04.683Z,1026.6
2023-02-11T22:27:04.290Z,1026.7
2023-02-11T22:29:03.268Z,1026.7
2023-02-11T22:31:03.366Z,1026.8
2023-02-11T22:33:03.342Z,1026.9
2023-02-11T22:35:03.413Z,1027
2023-02-11T22:35:27.115Z,1027.1
2023-02-11T22:36:17.555Z,1027.1
2023-02-11T22:38:17.569Z,1027.2
2023-02-11T22:40:17.531Z,1027.3
2023-02-11T22:42:17.532Z,1027.3
2023-02-11T22:44:17.581Z,1027.3
2023-02-11T22:46:17.640Z,1027.3
2023-02-11T22:48:17.555Z,1027.3
2023-02-11T22:50:17.564Z,1027.4
2023-02-11T22:52:17.534Z,1027.4
2023-02-11T22:54:17.505Z,1027.3
2023-02-11T22:56:17.507Z,1027.3
2023-02-11T22:58:17.506Z,1027.4
2023-02-11T23:00:17.488Z,1027.5
2023-02-11T23:02:17.696Z,1027.6
2023-02-11T23:04:17.486Z,1027.6
2023-02-11T23:06:17.494Z,1027.6
2023-02-11T23:08:17.534Z,1027.7
2023-02-11T23:10:17.490Z,1027.8
2023-02-11T23:12:17.490Z,1027.9
2023-02-11T23:14:17.483Z,1027.9
2023-02-11T23:16:17.533Z,1027.9
2023-02-11T23:18:17.472Z,1027.9
2023-02-11T23:20:17.493Z,1028
2023-02-11T23:22:17.505Z,1028
2023-02-11T23:24:17.466Z,1028.2
2023-02-11T23:26:17.497Z,1028.1
2023-02-11T23:28:17.540Z,1028
2023-02-11T23:30:17.460Z,1028
2023-02-11T23:32:17.537Z,1028.2
2023-02-11T23:34:17.484Z,1028.2
2023-02-11T23:36:17.489Z,1028.2
2023-02-11T23:38:17.482Z,1028.1
2023-02-11T23:40:17.497Z,1028.1
2023-02-11T23:42:17.461Z,1028.1
2023-02-11T23:44:17.485Z,1028.2
2023-02-11T23:46:17.507Z,1028.2
2023-02-11T23:48:17.434Z,1028.1
2023-02-11T23:50:17.452Z,1028
2023-02-11T23:52:17.429Z,1028
2023-02-11T23:54:17.444Z,1027.8
2023-02-11T23:56:17.436Z,1027.8
2023-02-11T23:58:17.495Z,1027.9
